McGregor, North Dakota
Current Conditions -  °F | °C
As of 2:15 PM on Thursday 23 Oct 2014 (Local Time) from KD60 Reporting Station
Clear Clear  
Wind Chill: 59°   Ceiling: Unl
Heat Index: 59°   Visibility: 10mi
Dew Point: 32°   Wind: 10mph
Humidity: 36%   Direction: 210°SSW
Pressure: 29.8"   Gusts: NA
Location:  48.6°N, 102.93°W
Report Text: KD60 231915Z AUTO 21009KT 10SM CLR 15/00 A2980 RMK AO2
Loading
Personal Weather Stations






























Interactive Weather Map
Tropical Storm Tracking
New forecast layout! Learn more

10-Day Weather Forecast

Advertisements
Track Severe Weather on mobile